Aviation Digital Data Service (ADDS)

Output produced by METARs form (0447 UTC 05 May 2016)
found at http://aviationweather.gov/adds/metars/
 
KBPT 042320Z 0500/0524 30007KT P6SM SKC 
     FM051500 01011KT P6SM SKC